Time;durP1;ratioP1;P1;durP2;ratioP2;P2;SDS_P1;SDS_P2;PMS_P1;PMS_P2;Temp;Humidity;BMP_temperature;BMP_pressure;BME280_temperature;BME280_humidity;BME280_pressure;Samples;Min_cycle;Max_cycle;Signal;HPM_P1;HPM_P2
2022/01/10 00:00:32;;;;;;;59.00;7.40;;;9.30;99.90;;;;;;5083116;28;20186;-70
2022/01/10 00:03:01;;;;;;;58.50;8.00;;;9.30;99.90;;;;;;5076410;28;20314;-70
2022/01/10 00:05:28;;;;;;;55.77;8.30;;;9.10;99.90;;;;;;5080433;28;20984;-70
2022/01/10 00:07:54;;;;;;;59.73;6.77;;;9.00;99.90;;;;;;5083401;28;20184;-70
2022/01/10 00:10:21;;;;;;;47.93;5.73;;;9.00;99.90;;;;;;5083328;28;20209;-70
2022/01/10 00:12:48;;;;;;;53.13;6.53;;;9.10;99.90;;;;;;5082824;28;20213;-70
2022/01/10 00:15:16;;;;;;;49.43;5.50;;;9.20;99.90;;;;;;5067109;28;20246;-70
2022/01/10 00:17:44;;;;;;;42.77;5.33;;;9.20;99.90;;;;;;5067109;28;20244;-70
2022/01/10 00:20:17;;;;;;;57.10;7.17;;;9.30;99.90;;;;;;5063758;28;20542;-70
2022/01/10 00:22:47;;;;;;;60.87;6.43;;;9.30;99.90;;;;;;5096612;28;20190;-70
2022/01/10 00:25:21;;;;;;;55.63;6.73;;;9.40;99.90;;;;;;5083413;28;20241;-69
2022/01/10 00:27:52;;;;;;;68.87;7.73;;;9.40;99.90;;;;;;5083683;28;20186;-69
2022/01/10 00:30:21;;;;;;;58.63;7.30;;;9.50;99.90;;;;;;5083117;28;20210;-70
2022/01/10 00:32:48;;;;;;;57.23;6.77;;;9.50;99.90;;;;;;5081697;28;20212;-70
2022/01/10 00:35:15;;;;;;;58.17;7.03;;;9.60;99.90;;;;;;5080343;28;20301;-70
2022/01/10 00:37:43;;;;;;;46.90;6.33;;;9.60;99.90;;;;;;5078557;28;20194;-69
2022/01/10 00:40:12;;;;;;;29.37;4.50;;;9.60;99.90;;;;;;5076520;28;20235;-69
2022/01/10 00:42:39;;;;;;;30.93;4.77;;;9.60;99.90;;;;;;5078971;28;20713;-69
2022/01/10 00:45:17;;;;;;;45.93;5.67;;;9.50;99.90;;;;;;5074792;28;20216;-69
2022/01/10 00:47:48;;;;;;;36.07;6.07;;;9.50;99.90;;;;;;5076258;28;20197;-69
2022/01/10 00:50:16;;;;;;;41.93;4.50;;;9.60;99.90;;;;;;5081746;28;20197;-69
2022/01/10 00:52:43;;;;;;;43.17;5.07;;;9.60;99.90;;;;;;5096160;28;20977;-69
2022/01/10 00:55:10;;;;;;;38.90;5.10;;;9.50;99.90;;;;;;5074662;28;21029;-69
2022/01/10 00:57:36;;;;;;;40.37;4.97;;;9.60;99.90;;;;;;5081217;28;20289;-69
2022/01/10 01:00:07;;;;;;;38.23;6.07;;;9.50;99.90;;;;;;5077222;28;20238;-69
2022/01/10 01:02:33;;;;;;;45.17;5.37;;;9.50;99.90;;;;;;5078229;28;23656;-69
2022/01/10 01:05:05;;;;;;;43.30;6.10;;;9.60;99.90;;;;;;5082307;28;20182;-69
2022/01/10 01:07:31;;;;;;;44.70;5.63;;;9.60;99.90;;;;;;5082988;28;20198;-69
2022/01/10 01:10:32;;;;;;;55.90;6.23;;;9.60;99.90;;;;;;5083224;28;20190;-69
2022/01/10 01:12:58;;;;;;;50.03;6.63;;;9.70;99.90;;;;;;5095469;28;20206;-69
2022/01/10 01:15:34;;;;;;;50.17;6.03;;;9.70;99.90;;;;;;5062107;28;20193;-69
2022/01/10 01:26:02;;;;;;;49.83;7.00;;;9.70;99.90;;;;;;5079175;28;20201;-69
2022/01/10 01:28:30;;;;;;;51.20;5.93;;;9.70;99.90;;;;;;5082014;28;20190;-69
2022/01/10 01:30:57;;;;;;;42.93;6.10;;;9.80;99.90;;;;;;5096939;28;20216;-69
2022/01/10 01:33:24;;;;;;;49.60;6.27;;;9.80;99.90;;;;;;5080816;28;20430;-69
2022/01/10 01:35:52;;;;;;;42.23;5.00;;;9.80;99.90;;;;;;5083328;28;20186;-69
2022/01/10 01:38:19;;;;;;;43.00;5.03;;;9.80;99.90;;;;;;5077705;28;20282;-69
2022/01/10 01:40:53;;;;;;;47.40;6.53;;;9.80;99.90;;;;;;5077183;28;20263;-69
2022/01/10 01:43:20;;;;;;;43.30;5.77;;;9.80;99.90;;;;;;5077224;28;20237;-69
2022/01/10 01:45:49;;;;;;;35.00;5.17;;;9.80;99.90;;;;;;5076316;28;20309;-69
2022/01/10 01:48:16;;;;;;;39.40;5.80;;;9.80;99.90;;;;;;5051396;28;20212;-68
2022/01/10 01:50:45;;;;;;;34.90;4.80;;;9.80;99.90;;;;;;5081347;28;20190;-68
2022/01/10 01:53:12;;;;;;;28.77;5.17;;;9.80;99.90;;;;;;5077239;28;20710;-69
2022/01/10 01:55:39;;;;;;;44.50;5.07;;;9.90;99.90;;;;;;5082501;28;20285;-69
2022/01/10 01:58:05;;;;;;;43.40;4.90;;;9.90;99.90;;;;;;5087822;28;20199;-69
2022/01/10 02:00:32;;;;;;;35.03;4.70;;;9.90;99.90;;;;;;5078967;28;20183;-69
2022/01/10 02:02:58;;;;;;;22.13;4.17;;;9.90;99.90;;;;;;5082265;28;20775;-69
2022/01/10 02:05:25;;;;;;;26.37;4.43;;;9.90;99.90;;;;;;5077683;28;20191;-71
2022/01/10 02:07:51;;;;;;;26.27;4.43;;;9.90;99.90;;;;;;5082257;28;20276;-65
2022/01/10 02:10:17;;;;;;;42.63;5.90;;;9.90;99.90;;;;;;5083948;28;20273;-65
2022/01/10 02:12:43;;;;;;;31.13;3.87;;;10.00;99.90;;;;;;5082679;28;20268;-68
2022/01/10 02:15:42;;;;;;;43.87;5.00;;;10.00;99.90;;;;;;5080412;28;20187;-66
2022/01/10 02:18:09;;;;;;;40.83;5.97;;;10.00;99.90;;;;;;5093423;28;21231;-66
2022/01/10 02:20:35;;;;;;;36.17;5.20;;;10.00;99.90;;;;;;5096941;28;20280;-66
2022/01/10 02:23:03;;;;;;;41.23;4.93;;;10.00;99.90;;;;;;5103294;28;21500;-66
2022/01/10 02:25:29;;;;;;;35.40;4.87;;;10.00;99.90;;;;;;5074656;28;20235;-65
2022/01/10 02:27:55;;;;;;;36.70;5.73;;;10.10;99.90;;;;;;5088131;28;20185;-65
2022/01/10 02:30:22;;;;;;;14.33;2.80;;;10.10;99.90;;;;;;5084156;28;20738;-65
2022/01/10 02:32:49;;;;;;;7.57;1.33;;;9.90;99.90;;;;;;5079774;28;20291;-65
2022/01/10 02:35:30;;;;;;;8.07;1.03;;;9.50;99.90;;;;;;5084337;28;20206;-65
2022/01/10 02:37:57;;;;;;;7.43;1.17;;;9.30;99.90;;;;;;5082138;28;20223;-65
2022/01/10 02:40:28;;;;;;;5.70;1.37;;;9.20;99.90;;;;;;5082877;28;20199;-66
2022/01/10 02:42:54;;;;;;;5.83;1.40;;;9.20;99.90;;;;;;5086802;28;20221;-65
2022/01/10 02:45:21;;;;;;;8.47;1.60;;;9.20;99.90;;;;;;5091565;28;20201;-65
2022/01/10 02:47:49;;;;;;;11.27;1.73;;;9.30;99.90;;;;;;5092422;28;20198;-65
2022/01/10 02:50:19;;;;;;;17.00;1.87;;;9.30;99.90;;;;;;5079458;28;20190;-65
2022/01/10 02:52:46;;;;;;;15.33;1.97;;;9.40;99.90;;;;;;5070943;28;20630;-65
2022/01/10 02:55:15;;;;;;;14.57;2.40;;;9.50;99.90;;;;;;5089663;28;20277;-64
2022/01/10 02:57:43;;;;;;;10.90;1.80;;;9.50;99.90;;;;;;5089048;28;20911;-65
2022/01/10 03:00:24;;;;;;;16.53;3.00;;;9.50;99.90;;;;;;5080125;28;20178;-64
2022/01/10 03:02:53;;;;;;;12.13;2.27;;;9.60;99.90;;;;;;5080659;28;20193;-65
2022/01/10 03:05:23;;;;;;;14.13;2.20;;;9.50;99.90;;;;;;5076699;28;20190;-65
2022/01/10 03:07:53;;;;;;;16.17;2.40;;;9.50;99.90;;;;;;5080081;28;20183;-64
2022/01/10 03:10:20;;;;;;;17.77;2.90;;;9.60;99.90;;;;;;5079504;28;20252;-65
2022/01/10 03:12:46;;;;;;;14.47;2.07;;;9.60;99.90;;;;;;5078625;28;20283;-65
2022/01/10 03:15:13;;;;;;;7.63;1.30;;;9.60;99.90;;;;;;5079500;28;20892;-65
2022/01/10 03:17:40;;;;;;;9.60;1.30;;;9.50;99.90;;;;;;5096706;28;20187;-64
2022/01/10 03:20:09;;;;;;;6.17;1.73;;;9.40;99.90;;;;;;5078236;28;20262;-65
2022/01/10 03:22:36;;;;;;;14.30;2.00;;;9.40;99.90;;;;;;5074902;28;20274;-65
2022/01/10 03:25:05;;;;;;;16.73;2.23;;;9.50;99.90;;;;;;5077107;28;20197;-65
2022/01/10 03:27:31;;;;;;;25.73;3.00;;;9.60;99.90;;;;;;5082909;28;20549;-64
2022/01/10 03:29:57;;;;;;;21.23;3.60;;;9.70;99.90;;;;;;5081880;28;20272;-65
2022/01/10 03:32:25;;;;;;;18.30;2.70;;;9.80;99.90;;;;;;5078857;28;20206;-65
2022/01/10 03:34:51;;;;;;;22.93;3.40;;;9.80;99.90;;;;;;5086013;28;20248;-65
2022/01/10 03:37:17;;;;;;;12.87;2.30;;;9.90;99.90;;;;;;5082856;28;20211;-65
2022/01/10 03:39:45;;;;;;;29.17;2.87;;;9.80;99.90;;;;;;5076976;28;20655;-65
2022/01/10 03:42:12;;;;;;;11.67;2.70;;;9.90;99.90;;;;;;5087730;28;20193;-65
2022/01/10 03:44:38;;;;;;;23.93;2.47;;;9.90;99.90;;;;;;5086484;28;20194;-65
2022/01/10 03:47:05;;;;;;;19.43;2.63;;;10.00;99.90;;;;;;5077297;28;20198;-65
2022/01/10 03:49:32;;;;;;;22.90;3.57;;;10.00;99.90;;;;;;5081998;28;20194;-65
2022/01/10 03:51:58;;;;;;;18.73;2.83;;;10.00;99.90;;;;;;5075921;28;20206;-65
2022/01/10 03:54:24;;;;;;;16.93;2.87;;;10.00;99.90;;;;;;5083869;28;20274;-65
2022/01/10 03:56:51;;;;;;;19.23;2.53;;;10.00;99.90;;;;;;5087082;28;20604;-66
2022/01/10 03:59:17;;;;;;;22.70;2.90;;;10.00;99.90;;;;;;5086119;28;20182;-65
2022/01/10 04:01:43;;;;;;;18.43;2.67;;;10.00;99.90;;;;;;5095150;28;20186;-65
2022/01/10 04:04:10;;;;;;;19.73;2.67;;;10.00;99.90;;;;;;5085434;28;20619;-65
2022/01/10 04:06:36;;;;;;;26.57;2.97;;;10.00;99.90;;;;;;5078465;28;20189;-66
2022/01/10 04:09:04;;;;;;;32.70;3.33;;;10.00;99.90;;;;;;5082885;28;20681;-66
2022/01/10 04:11:30;;;;;;;38.00;5.63;;;10.00;99.90;;;;;;5078388;28;20228;-65
2022/01/10 04:13:56;;;;;;;35.77;5.17;;;10.00;99.90;;;;;;5083646;28;20210;-66
2022/01/10 04:16:23;;;;;;;28.13;4.57;;;10.00;99.90;;;;;;5080754;28;21126;-65
2022/01/10 04:18:49;;;;;;;37.63;4.43;;;10.00;99.90;;;;;;5084613;28;20192;-65
2022/01/10 04:21:18;;;;;;;34.97;4.37;;;10.10;99.90;;;;;;5077144;28;20296;-65
2022/01/10 04:23:45;;;;;;;41.57;4.93;;;10.10;99.90;;;;;;5084770;28;20185;-67
2022/01/10 04:26:11;;;;;;;38.77;5.03;;;10.10;99.90;;;;;;5085236;28;20189;-67
2022/01/10 04:28:38;;;;;;;35.17;4.53;;;10.20;99.90;;;;;;5085016;28;20526;-65
2022/01/10 04:31:04;;;;;;;34.57;4.30;;;10.20;99.90;;;;;;5085757;28;20277;-66
2022/01/10 04:33:31;;;;;;;30.63;4.33;;;10.20;99.90;;;;;;5066799;28;20317;-66
2022/01/10 04:35:58;;;;;;;34.80;4.93;;;10.20;99.90;;;;;;5083351;28;20194;-66
2022/01/10 04:38:25;;;;;;;45.80;5.07;;;10.20;99.90;;;;;;5082044;28;20273;-66
2022/01/10 04:40:52;;;;;;;39.97;5.07;;;10.20;99.90;;;;;;5101568;28;20190;-66
2022/01/10 04:43:18;;;;;;;31.47;3.90;;;10.20;99.90;;;;;;5080537;28;20192;-65
2022/01/10 04:45:44;;;;;;;30.20;4.33;;;10.20;99.90;;;;;;5086134;28;20460;-65
2022/01/10 04:48:11;;;;;;;39.67;5.33;;;10.20;99.90;;;;;;5083702;28;20262;-65
2022/01/10 04:51:10;;;;;;;30.00;4.83;;;10.20;99.90;;;;;;5100704;28;20194;-65
2022/01/10 04:53:29;;;;;;;34.13;4.77;;;10.20;99.90;;;;;;5074568;28;20230;-66
2022/01/10 04:55:56;;;;;;;37.63;5.50;;;10.20;99.90;;;;;;5082300;28;20179;-66
2022/01/10 04:58:23;;;;;;;44.37;4.77;;;10.20;99.90;;;;;;5083239;28;20178;-66
2022/01/10 05:00:55;;;;;;;31.47;4.20;;;10.20;99.90;;;;;;5084962;28;20182;-66
2022/01/10 05:03:22;;;;;;;33.37;4.57;;;10.20;99.90;;;;;;5077649;28;20706;-66
2022/01/10 05:05:53;;;;;;;27.10;4.90;;;10.20;99.90;;;;;;5083525;28;20190;-66
2022/01/10 05:08:21;;;;;;;33.27;3.97;;;10.20;99.90;;;;;;5086851;28;20303;-67
2022/01/10 05:10:49;;;;;;;30.00;4.17;;;10.20;99.90;;;;;;5082286;28;20198;-66
2022/01/10 05:13:16;;;;;;;27.90;3.83;;;10.20;99.90;;;;;;5079167;28;20221;-67
2022/01/10 05:15:45;;;;;;;25.30;3.17;;;10.30;99.90;;;;;;5080993;28;20306;-66
2022/01/10 05:18:15;;;;;;;24.37;3.63;;;10.30;99.90;;;;;;5101578;28;20189;-66
2022/01/10 05:20:42;;;;;;;27.27;4.10;;;10.30;99.90;;;;;;5076797;28;20250;-66
2022/01/10 05:23:08;;;;;;;40.87;4.90;;;10.30;99.90;;;;;;5080612;28;20197;-66
2022/01/10 05:25:39;;;;;;;29.83;4.23;;;10.30;99.90;;;;;;5078777;28;20186;-68
2022/01/10 05:28:07;;;;;;;34.40;4.17;;;10.30;99.90;;;;;;5082766;28;20190;-66
2022/01/10 05:30:34;;;;;;;37.80;4.27;;;10.40;99.90;;;;;;5076979;28;20181;-66
2022/01/10 05:33:00;;;;;;;27.67;3.50;;;10.40;99.90;;;;;;5082543;28;20201;-65
2022/01/10 05:35:26;;;;;;;33.23;4.30;;;10.40;99.90;;;;;;5074644;28;20262;-65
2022/01/10 05:37:53;;;;;;;36.57;4.67;;;10.40;99.90;;;;;;5087475;28;20664;-66
2022/01/10 05:40:19;;;;;;;25.37;4.53;;;10.40;99.90;;;;;;5084856;28;20289;-66
2022/01/10 05:42:46;;;;;;;27.57;3.77;;;10.40;99.90;;;;;;5101335;28;20182;-66
2022/01/10 05:45:12;;;;;;;33.23;3.53;;;10.40;99.90;;;;;;5081843;28;20266;-66
2022/01/10 05:47:44;;;;;;;38.57;4.03;;;10.40;99.90;;;;;;5081449;28;20273;-66
2022/01/10 05:50:18;;;;;;;25.37;4.30;;;10.50;99.90;;;;;;5078944;28;20205;-66
2022/01/10 05:52:46;;;;;;;25.87;3.63;;;10.40;99.90;;;;;;5102106;28;20291;-66
2022/01/10 05:55:13;;;;;;;25.03;3.93;;;10.40;99.90;;;;;;5077986;28;20309;-66
2022/01/10 05:57:39;;;;;;;41.57;4.37;;;10.50;99.90;;;;;;5098480;28;20182;-66
2022/01/10 06:00:07;;;;;;;39.07;4.30;;;10.40;99.90;;;;;;5080227;28;20190;-66
2022/01/10 06:02:33;;;;;;;26.57;4.00;;;10.50;99.90;;;;;;5105649;28;20182;-66
2022/01/10 06:05:05;;;;;;;37.83;4.73;;;10.50;99.90;;;;;;5086582;28;20190;-66
2022/01/10 06:07:31;;;;;;;33.07;4.27;;;10.50;99.90;;;;;;5103417;27;20256;-66
2022/01/10 06:09:58;;;;;;;39.60;5.17;;;10.50;99.90;;;;;;5080949;28;20630;-65
2022/01/10 06:12:24;;;;;;;28.27;3.67;;;10.50;99.90;;;;;;5103630;28;20189;-67
2022/01/10 06:14:50;;;;;;;28.87;4.13;;;10.60;99.90;;;;;;5079675;28;20203;-67
2022/01/10 06:17:16;;;;;;;24.63;4.03;;;10.60;99.90;;;;;;5087389;28;20186;-67
2022/01/10 06:19:43;;;;;;;23.33;3.83;;;10.60;99.90;;;;;;5071352;28;20186;-66
2022/01/10 06:22:09;;;;;;;30.03;3.77;;;10.70;99.90;;;;;;5080059;28;20183;-66
2022/01/10 06:24:35;;;;;;;25.07;3.83;;;10.70;99.90;;;;;;5100206;28;20186;-66
2022/01/10 06:27:01;;;;;;;28.80;3.83;;;10.70;99.90;;;;;;5099534;28;20192;-66
2022/01/10 06:29:28;;;;;;;24.10;4.23;;;10.80;99.90;;;;;;5098959;28;20178;-66
2022/01/10 06:31:54;;;;;;;27.20;3.93;;;10.80;99.90;;;;;;5101984;27;20247;-66
2022/01/10 06:34:20;;;;;;;27.60;3.80;;;10.90;99.90;;;;;;5083719;28;20234;-66
2022/01/10 06:36:47;;;;;;;28.83;4.33;;;10.90;99.90;;;;;;5081291;28;20198;-66
2022/01/10 06:39:13;;;;;;;33.07;4.77;;;10.90;99.90;;;;;;5087474;28;20308;-66
2022/01/10 06:41:39;;;;;;;33.80;4.30;;;11.00;99.90;;;;;;5087861;28;20507;-66
2022/01/10 06:44:06;;;;;;;31.03;4.50;;;11.00;99.90;;;;;;5104570;28;20545;-66
2022/01/10 06:46:32;;;;;;;30.63;4.93;;;11.00;99.90;;;;;;5085867;28;20189;-66
2022/01/10 06:48:58;;;;;;;28.87;4.80;;;11.00;99.90;;;;;;5063230;28;20205;-66
2022/01/10 06:51:25;;;;;;;33.40;5.13;;;11.00;99.90;;;;;;5086481;28;20244;-66
2022/01/10 06:53:51;;;;;;;28.67;4.63;;;11.10;99.90;;;;;;5079056;28;20210;-66
2022/01/10 06:56:18;;;;;;;38.30;5.07;;;11.10;99.90;;;;;;5081267;28;20281;-66
2022/01/10 06:58:44;;;;;;;32.43;4.27;;;11.10;99.90;;;;;;5065128;28;20347;-66
2022/01/10 07:01:10;;;;;;;26.27;4.20;;;11.10;99.90;;;;;;5086505;28;20589;-66
2022/01/10 07:03:37;;;;;;;30.37;5.13;;;11.10;99.90;;;;;;5086094;28;20197;-66
2022/01/10 07:06:03;;;;;;;30.30;4.30;;;11.20;99.90;;;;;;5086117;28;20190;-66
2022/01/10 07:08:29;;;;;;;34.07;4.30;;;11.20;99.90;;;;;;5103118;27;20194;-66
2022/01/10 07:10:55;;;;;;;33.57;5.53;;;11.20;99.90;;;;;;5084610;28;20937;-68
2022/01/10 07:13:24;;;;;;;29.07;4.80;;;11.20;99.90;;;;;;5066742;28;20217;-67
2022/01/10 07:15:52;;;;;;;34.80;3.97;;;11.20;99.90;;;;;;5086223;28;20202;-66
2022/01/10 07:18:19;;;;;;;31.47;4.07;;;11.20;99.90;;;;;;5082053;28;20530;-66
2022/01/10 07:20:45;;;;;;;38.60;4.80;;;11.20;99.90;;;;;;5090094;28;20189;-66
2022/01/10 07:23:11;;;;;;;43.03;5.53;;;11.10;99.90;;;;;;5084005;28;20733;-66
2022/01/10 07:25:38;;;;;;;37.67;4.83;;;11.20;99.90;;;;;;5088069;28;20186;-66
2022/01/10 07:28:05;;;;;;;31.60;5.20;;;11.20;99.90;;;;;;5083100;28;20190;-66
2022/01/10 07:30:31;;;;;;;35.37;5.10;;;11.20;99.90;;;;;;5078668;28;20186;-66
2022/01/10 07:32:58;;;;;;;42.17;5.33;;;11.20;99.90;;;;;;5083971;28;20201;-66
2022/01/10 07:35:25;;;;;;;32.73;3.90;;;11.20;99.90;;;;;;5082922;28;20186;-66
2022/01/10 07:37:51;;;;;;;32.07;4.53;;;11.20;99.90;;;;;;5086550;28;20187;-66
2022/01/10 07:40:18;;;;;;;26.43;4.47;;;11.30;99.90;;;;;;5084073;28;20194;-67
2022/01/10 07:42:44;;;;;;;34.13;4.33;;;11.30;99.90;;;;;;5084391;28;20192;-66
2022/01/10 07:45:11;;;;;;;29.80;4.47;;;11.30;99.90;;;;;;5086116;28;20182;-68
2022/01/10 07:47:37;;;;;;;26.97;4.57;;;11.30;99.90;;;;;;5099902;28;20212;-68
2022/01/10 07:50:06;;;;;;;28.70;4.47;;;11.30;99.90;;;;;;5102226;28;20248;-67
2022/01/10 07:52:33;;;;;;;28.50;4.00;;;11.20;99.90;;;;;;5098527;28;20499;-68
2022/01/10 07:54:59;;;;;;;39.03;4.73;;;11.20;99.90;;;;;;5084725;28;20748;-68
2022/01/10 07:57:26;;;;;;;25.90;3.90;;;11.20;99.90;;;;;;5083217;28;20182;-69
2022/01/10 07:59:52;;;;;;;25.70;4.67;;;11.20;99.90;;;;;;5080106;28;20192;-66
2022/01/10 08:02:20;;;;;;;27.90;4.27;;;11.20;99.90;;;;;;5098740;28;20654;-67
2022/01/10 08:04:48;;;;;;;28.20;5.00;;;11.20;99.90;;;;;;5084705;28;20197;-70
2022/01/10 08:07:15;;;;;;;29.13;3.87;;;11.20;99.90;;;;;;5081804;28;20249;-69
2022/01/10 08:09:41;;;;;;;27.93;4.50;;;11.20;99.90;;;;;;5075554;28;20201;-69
2022/01/10 08:12:08;;;;;;;37.10;5.60;;;11.20;99.90;;;;;;5062770;28;20190;-69
2022/01/10 08:14:35;;;;;;;43.40;6.43;;;11.20;99.90;;;;;;5082786;28;20210;-69
2022/01/10 08:17:03;;;;;;;33.90;5.97;;;11.20;99.90;;;;;;5084470;28;21027;-69
2022/01/10 08:19:32;;;;;;;38.93;6.33;;;11.20;99.90;;;;;;5074751;28;20277;-69
2022/01/10 08:21:58;;;;;;;46.23;6.33;;;11.20;99.90;;;;;;5068303;28;20186;-68
2022/01/10 08:24:25;;;;;;;42.27;6.83;;;11.20;99.90;;;;;;5083846;28;20200;-69
2022/01/10 08:26:53;;;;;;;43.23;6.67;;;11.30;99.90;;;;;;5090780;27;20186;-70
2022/01/10 08:29:20;;;;;;;45.27;6.67;;;11.30;99.90;;;;;;5083466;28;20255;-69
2022/01/10 08:31:47;;;;;;;33.00;6.17;;;11.20;99.90;;;;;;5093093;27;20201;-69
2022/01/10 08:34:14;;;;;;;21.90;4.07;;;11.20;99.90;;;;;;5080007;28;20220;-69
2022/01/10 08:36:41;;;;;;;15.30;3.50;;;11.20;99.90;;;;;;5064677;28;20828;-69
2022/01/10 08:39:09;;;;;;;14.57;2.80;;;11.10;99.90;;;;;;5096206;28;20190;-69
2022/01/10 08:41:37;;;;;;;20.77;3.10;;;11.00;99.90;;;;;;5081814;28;20186;-69
2022/01/10 08:44:10;;;;;;;18.53;3.40;;;11.00;99.90;;;;;;5082252;28;20224;-69
2022/01/10 08:46:37;;;;;;;14.07;2.60;;;11.00;99.90;;;;;;5080461;28;20239;-69
2022/01/10 08:49:04;;;;;;;12.17;2.27;;;10.90;99.90;;;;;;5084442;28;20225;-69
2022/01/10 08:51:32;;;;;;;13.17;1.90;;;10.90;99.90;;;;;;5077729;28;20178;-69
2022/01/10 08:53:59;;;;;;;9.30;1.43;;;10.80;99.90;;;;;;5084279;28;20205;-69
2022/01/10 08:56:25;;;;;;;7.03;1.73;;;10.80;99.90;;;;;;5089172;28;20193;-69
2022/01/10 08:58:52;;;;;;;9.63;2.13;;;10.90;99.90;;;;;;5076877;28;20829;-69
2022/01/10 09:01:21;;;;;;;7.90;1.43;;;10.90;99.90;;;;;;5056763;28;20197;-69
2022/01/10 09:03:48;;;;;;;5.53;1.37;;;10.90;99.90;;;;;;5073183;28;20306;-68
2022/01/10 09:06:15;;;;;;;5.07;1.13;;;10.90;99.90;;;;;;5082541;28;20193;-69
2022/01/10 09:08:44;;;;;;;7.77;1.20;;;11.00;99.90;;;;;;5099102;27;20191;-69
2022/01/10 09:11:10;;;;;;;9.47;1.40;;;11.00;99.90;;;;;;5076310;28;20195;-69
2022/01/10 09:13:37;;;;;;;5.50;1.20;;;11.00;99.90;;;;;;5080941;28;20297;-69
2022/01/10 09:16:06;;;;;;;8.10;1.43;;;11.00;99.90;;;;;;5080437;28;20189;-68
2022/01/10 09:18:33;;;;;;;10.53;1.43;;;11.00;99.90;;;;;;5081842;28;20666;-69
2022/01/10 09:21:00;;;;;;;7.57;1.20;;;11.00;99.90;;;;;;5087288;28;20182;-69
2022/01/10 09:23:28;;;;;;;6.07;1.13;;;11.10;99.90;;;;;;5063538;28;20203;-69
2022/01/10 09:25:54;;;;;;;6.93;1.27;;;11.10;99.90;;;;;;5081160;28;20189;-69
2022/01/10 09:28:21;;;;;;;6.13;1.20;;;11.10;99.90;;;;;;5083332;28;20209;-69
2022/01/10 09:30:49;;;;;;;6.47;1.30;;;11.20;99.90;;;;;;5083284;28;20209;-69
2022/01/10 09:33:16;;;;;;;5.80;1.07;;;11.30;99.90;;;;;;5073597;28;20224;-69
2022/01/10 09:35:43;;;;;;;4.67;1.03;;;11.20;99.90;;;;;;5071250;28;20247;-69
2022/01/10 09:38:11;;;;;;;5.93;1.57;;;11.20;99.90;;;;;;5095170;28;20240;-69
2022/01/10 09:40:38;;;;;;;3.00;0.60;;;11.30;99.90;;;;;;5098301;28;20190;-69
2022/01/10 09:43:04;;;;;;;2.90;0.90;;;11.30;99.90;;;;;;5079340;28;20206;-69
2022/01/10 09:45:34;;;;;;;5.43;1.10;;;11.30;99.90;;;;;;5081346;28;20193;-69
2022/01/10 09:48:01;;;;;;;3.37;1.10;;;11.30;99.90;;;;;;5084572;28;20169;-69
2022/01/10 09:50:28;;;;;;;6.13;1.30;;;11.20;99.90;;;;;;5082811;28;20244;-69
2022/01/10 09:52:54;;;;;;;5.27;1.00;;;11.20;99.90;;;;;;5081713;28;20232;-69
2022/01/10 09:55:21;;;;;;;4.37;0.87;;;11.20;99.90;;;;;;5082854;28;20198;-69
2022/01/10 09:57:47;;;;;;;5.27;1.10;;;11.30;99.90;;;;;;5098346;28;20186;-69
2022/01/10 10:00:16;;;;;;;6.37;0.90;;;11.30;99.90;;;;;;5079952;28;20204;-69
2022/01/10 10:02:42;;;;;;;6.57;1.30;;;11.30;99.90;;;;;;5053181;28;20197;-69
2022/01/10 10:05:12;;;;;;;7.10;1.10;;;11.50;99.90;;;;;;5092402;28;20212;-69
2022/01/10 10:07:40;;;;;;;14.20;1.73;;;11.60;99.90;;;;;;5076785;28;20233;-69
2022/01/10 10:10:12;;;;;;;8.13;1.20;;;11.80;99.90;;;;;;5081729;28;20277;-69
2022/01/10 10:12:50;;;;;;;6.47;1.13;;;11.90;99.90;;;;;;5082491;28;20209;-69
2022/01/10 10:15:22;;;;;;;7.77;1.80;;;12.10;99.90;;;;;;5072808;28;20198;-69
2022/01/10 10:17:49;;;;;;;9.17;1.50;;;12.30;99.90;;;;;;5060784;28;20195;-70
2022/01/10 10:20:23;;;;;;;4.97;1.27;;;12.30;99.90;;;;;;5062338;28;20186;-70
2022/01/10 10:22:53;;;;;;;5.83;1.57;;;12.30;99.90;;;;;;5075623;28;20193;-69
2022/01/10 10:25:21;;;;;;;7.07;1.47;;;12.30;99.90;;;;;;5080258;28;20733;-70
2022/01/10 10:27:49;;;;;;;6.60;1.23;;;12.20;99.90;;;;;;5067304;28;20198;-69
2022/01/10 10:30:26;;;;;;;8.57;1.53;;;12.10;99.90;;;;;;5080620;28;20540;-69
2022/01/10 10:32:53;;;;;;;7.47;1.57;;;12.00;99.90;;;;;;5080038;28;20209;-69
2022/01/10 10:35:19;;;;;;;8.43;1.50;;;12.00;99.90;;;;;;5072354;28;20969;-69
2022/01/10 10:37:48;;;;;;;6.23;1.37;;;11.90;99.90;;;;;;5083870;28;20235;-69
2022/01/10 10:40:15;;;;;;;12.50;1.40;;;11.90;99.90;;;;;;5066416;28;20228;-68
2022/01/10 10:42:44;;;;;;;15.30;1.97;;;11.80;99.90;;;;;;5081604;28;20194;-68
2022/01/10 10:45:13;;;;;;;14.00;1.67;;;11.80;99.90;;;;;;5084285;28;20217;-68
2022/01/10 10:47:44;;;;;;;10.60;1.90;;;11.70;99.90;;;;;;5088764;28;20193;-68
2022/01/10 10:50:11;;;;;;;12.53;1.70;;;11.70;99.90;;;;;;5082179;28;20259;-67
2022/01/10 10:52:41;;;;;;;15.40;1.97;;;11.60;99.90;;;;;;5081932;28;20289;-68
2022/01/10 10:55:14;;;;;;;10.70;1.90;;;11.70;99.90;;;;;;5082084;28;20194;-68
2022/01/10 10:57:43;;;;;;;8.83;1.57;;;11.70;99.90;;;;;;5084627;28;20185;-68
2022/01/10 11:00:15;;;;;;;10.30;1.60;;;11.80;99.90;;;;;;5082040;28;20194;-68
2022/01/10 11:02:43;;;;;;;10.10;2.10;;;11.80;99.90;;;;;;5085758;28;20194;-68
2022/01/10 11:05:11;;;;;;;14.10;3.60;;;11.90;99.90;;;;;;5077465;28;20257;-68
2022/01/10 11:07:38;;;;;;;14.43;2.73;;;11.90;99.90;;;;;;5081548;28;20201;-68
2022/01/10 11:10:07;;;;;;;17.60;2.83;;;12.00;99.90;;;;;;5081861;28;20239;-68
2022/01/10 11:12:38;;;;;;;13.77;2.40;;;12.00;99.90;;;;;;5099680;28;20247;-68
2022/01/10 11:15:05;;;;;;;17.03;2.20;;;12.10;99.90;;;;;;5079199;28;20191;-68
2022/01/10 11:17:31;;;;;;;17.87;2.47;;;12.10;99.90;;;;;;5071430;28;20182;-68
2022/01/10 11:20:20;;;;;;;16.03;2.20;;;12.10;99.90;;;;;;5085829;28;20200;-68
2022/01/10 11:22:58;;;;;;;19.17;2.23;;;12.10;99.90;;;;;;5083677;28;20237;-69
2022/01/10 11:25:43;;;;;;;17.10;2.07;;;12.20;99.90;;;;;;5082270;28;20204;-69
2022/01/10 11:28:23;;;;;;;19.33;2.10;;;12.10;99.90;;;;;;5084168;28;20273;-68
2022/01/10 11:30:53;;;;;;;16.10;2.33;;;12.10;99.90;;;;;;5083607;28;20476;-68
2022/01/10 11:33:26;;;;;;;16.43;1.90;;;12.10;99.90;;;;;;5085848;28;20207;-68
2022/01/10 11:35:54;;;;;;;8.30;1.60;;;12.10;99.90;;;;;;5076613;28;20194;-68
2022/01/10 11:38:44;;;;;;;15.30;2.00;;;12.00;99.90;;;;;;5096737;27;20202;-67
2022/01/10 11:41:14;;;;;;;20.20;2.60;;;12.00;99.90;;;;;;5082661;28;20194;-68
2022/01/10 11:43:54;;;;;;;14.47;2.63;;;12.00;99.90;;;;;;5093483;28;20202;-66
2022/01/10 11:46:40;;;;;;;15.23;2.33;;;12.00;99.90;;;;;;5092333;28;20198;-68
2022/01/10 11:49:09;;;;;;;19.17;2.80;;;11.90;99.90;;;;;;5083214;28;20228;-68
2022/01/10 11:51:42;;;;;;;17.17;2.90;;;11.90;99.90;;;;;;5085132;28;20252;-68
2022/01/10 11:54:19;;;;;;;11.30;2.17;;;11.90;99.90;;;;;;5081598;28;20308;-68
2022/01/10 11:56:55;;;;;;;14.53;1.77;;;11.80;99.90;;;;;;5088263;28;20619;-68
2022/01/10 11:59:24;;;;;;;19.90;2.40;;;11.90;99.90;;;;;;5086422;28;20205;-68
2022/01/10 12:02:03;;;;;;;13.03;1.90;;;11.90;99.90;;;;;;5069038;28;20272;-68
2022/01/10 12:04:46;;;;;;;9.40;1.97;;;11.90;99.90;;;;;;5092309;28;20653;-68
2022/01/10 12:07:19;;;;;;;11.23;1.90;;;12.00;99.90;;;;;;5076274;28;20205;-68
2022/01/10 12:09:46;;;;;;;15.73;2.20;;;12.10;99.90;;;;;;5070308;28;20889;-69
2022/01/10 12:12:18;;;;;;;16.20;2.27;;;12.20;99.90;;;;;;5085921;28;20716;-68
2022/01/10 12:14:48;;;;;;;15.03;2.43;;;12.40;99.90;;;;;;5080696;28;20231;-69
2022/01/10 12:17:15;;;;;;;13.60;2.30;;;12.40;99.90;;;;;;5080849;28;20637;-68
2022/01/10 12:19:42;;;;;;;9.50;1.90;;;12.40;99.90;;;;;;5084223;28;20182;-68
2022/01/10 12:22:10;;;;;;;11.50;1.83;;;12.40;99.90;;;;;;5076254;28;20315;-68
2022/01/10 12:24:39;;;;;;;12.27;2.27;;;12.30;99.90;;;;;;5076682;28;20564;-68
2022/01/10 12:27:09;;;;;;;10.20;1.87;;;12.30;99.90;;;;;;5078087;28;20543;-68
2022/01/10 12:29:36;;;;;;;10.93;2.20;;;12.30;99.90;;;;;;5082883;28;20547;-69
2022/01/10 12:32:08;;;;;;;13.20;2.00;;;12.30;99.90;;;;;;5092029;28;20198;-68
2022/01/10 12:34:36;;;;;;;9.77;1.63;;;12.30;99.90;;;;;;5076115;28;20210;-69
2022/01/10 12:37:03;;;;;;;12.77;1.90;;;12.30;99.90;;;;;;5078000;28;20186;-68
2022/01/10 12:39:31;;;;;;;7.70;1.80;;;12.20;99.90;;;;;;5060850;28;20207;-69
2022/01/10 12:42:00;;;;;;;9.07;1.60;;;12.20;99.90;;;;;;5079452;28;20186;-68
2022/01/10 12:44:28;;;;;;;13.87;2.00;;;12.30;99.90;;;;;;5072359;28;20738;-69
2022/01/10 12:46:55;;;;;;;13.47;2.47;;;12.30;99.90;;;;;;5061074;28;20191;-69
2022/01/10 12:49:22;;;;;;;16.73;2.43;;;12.40;99.90;;;;;;5076769;28;20196;-68
2022/01/10 12:51:52;;;;;;;11.97;2.10;;;12.40;99.90;;;;;;5082616;28;20263;-69
2022/01/10 12:54:23;;;;;;;14.93;2.23;;;12.40;99.90;;;;;;5080633;28;20312;-69